sensor_id;sensor_type;location;lat;lon;timestamp;P1;durP1;ratioP1;P2;durP2;ratioP2
75096;SDS011;63684;47.964;11.186;2023-04-23T00:01:16;2.60;;;2.00;;
75096;SDS011;63684;47.964;11.186;2023-04-23T00:03:42;6.00;;;2.07;;
75096;SDS011;63684;47.964;11.186;2023-04-23T00:06:08;2.50;;;1.80;;
75096;SDS011;63684;47.964;11.186;2023-04-23T00:08:36;3.93;;;2.03;;
75096;SDS011;63684;47.964;11.186;2023-04-23T00:11:03;3.03;;;2.00;;
75096;SDS011;63684;47.964;11.186;2023-04-23T00:13:29;2.77;;;1.93;;
75096;SDS011;63684;47.964;11.186;2023-04-23T00:15:55;4.00;;;2.33;;
75096;SDS011;63684;47.964;11.186;2023-04-23T00:18:20;2.70;;;1.73;;
75096;SDS011;63684;47.964;11.186;2023-04-23T00:20:46;3.07;;;2.10;;
75096;SDS011;63684;47.964;11.186;2023-04-23T00:23:12;2.70;;;1.90;;
75096;SDS011;63684;47.964;11.186;2023-04-23T00:25:38;2.97;;;1.63;;
75096;SDS011;63684;47.964;11.186;2023-04-23T00:28:03;2.03;;;1.83;;
75096;SDS011;63684;47.964;11.186;2023-04-23T00:30:29;2.47;;;1.87;;
75096;SDS011;63684;47.964;11.186;2023-04-23T00:32:55;4.43;;;2.10;;
75096;SDS011;63684;47.964;11.186;2023-04-23T00:35:20;4.17;;;1.60;;
75096;SDS011;63684;47.964;11.186;2023-04-23T00:37:46;4.10;;;2.00;;
75096;SDS011;63684;47.964;11.186;2023-04-23T00:40:11;2.80;;;1.93;;
75096;SDS011;63684;47.964;11.186;2023-04-23T00:42:37;2.70;;;1.60;;
75096;SDS011;63684;47.964;11.186;2023-04-23T00:45:03;3.20;;;2.07;;
75096;SDS011;63684;47.964;11.186;2023-04-23T00:47:32;2.83;;;1.80;;
75096;SDS011;63684;47.964;11.186;2023-04-23T00:49:58;3.93;;;1.90;;
75096;SDS011;63684;47.964;11.186;2023-04-23T00:52:23;1.93;;;1.70;;
75096;SDS011;63684;47.964;11.186;2023-04-23T00:54:49;2.60;;;2.07;;
75096;SDS011;63684;47.964;11.186;2023-04-23T00:57:14;3.47;;;1.87;;
75096;SDS011;63684;47.964;11.186;2023-04-23T00:59:41;4.87;;;2.03;;
75096;SDS011;63684;47.964;11.186;2023-04-23T01:02:06;2.27;;;1.97;;
75096;SDS011;63684;47.964;11.186;2023-04-23T01:04:32;3.27;;;2.20;;
75096;SDS011;63684;47.964;11.186;2023-04-23T01:06:57;2.70;;;1.90;;
75096;SDS011;63684;47.964;11.186;2023-04-23T01:09:23;2.27;;;2.07;;
75096;SDS011;63684;47.964;11.186;2023-04-23T01:11:51;4.07;;;2.03;;
75096;SDS011;63684;47.964;11.186;2023-04-23T01:14:17;2.00;;;1.87;;
75096;SDS011;63684;47.964;11.186;2023-04-23T01:16:43;2.27;;;2.00;;
75096;SDS011;63684;47.964;11.186;2023-04-23T01:19:08;2.00;;;1.80;;
75096;SDS011;63684;47.964;11.186;2023-04-23T01:21:35;2.93;;;1.87;;
75096;SDS011;63684;47.964;11.186;2023-04-23T01:24:02;2.27;;;2.07;;
75096;SDS011;63684;47.964;11.186;2023-04-23T01:26:28;2.50;;;2.07;;
75096;SDS011;63684;47.964;11.186;2023-04-23T01:28:54;2.20;;;2.00;;
75096;SDS011;63684;47.964;11.186;2023-04-23T01:31:19;4.30;;;2.10;;
75096;SDS011;63684;47.964;11.186;2023-04-23T01:33:46;1.73;;;1.63;;
75096;SDS011;63684;47.964;11.186;2023-04-23T01:36:11;2.90;;;2.17;;
75096;SDS011;63684;47.964;11.186;2023-04-23T01:38:37;2.90;;;1.80;;
75096;SDS011;63684;47.964;11.186;2023-04-23T01:41:03;3.47;;;1.80;;
75096;SDS011;63684;47.964;11.186;2023-04-23T01:43:28;6.13;;;2.10;;
75096;SDS011;63684;47.964;11.186;2023-04-23T01:45:56;2.73;;;1.60;;
75096;SDS011;63684;47.964;11.186;2023-04-23T01:48:21;2.53;;;1.60;;
75096;SDS011;63684;47.964;11.186;2023-04-23T01:50:48;6.00;;;2.07;;
75096;SDS011;63684;47.964;11.186;2023-04-23T01:53:15;3.87;;;2.27;;
75096;SDS011;63684;47.964;11.186;2023-04-23T01:55:40;2.17;;;1.80;;
75096;SDS011;63684;47.964;11.186;2023-04-23T01:58:07;2.10;;;1.90;;
75096;SDS011;63684;47.964;11.186;2023-04-23T02:00:32;3.13;;;1.93;;
75096;SDS011;63684;47.964;11.186;2023-04-23T02:02:58;2.23;;;1.73;;
75096;SDS011;63684;47.964;11.186;2023-04-23T02:05:23;2.43;;;1.80;;
75096;SDS011;63684;47.964;11.186;2023-04-23T02:07:50;4.30;;;1.80;;
75096;SDS011;63684;47.964;11.186;2023-04-23T02:10:15;2.10;;;1.87;;
75096;SDS011;63684;47.964;11.186;2023-04-23T02:12:42;4.47;;;2.10;;
75096;SDS011;63684;47.964;11.186;2023-04-23T02:15:08;1.90;;;1.80;;
75096;SDS011;63684;47.964;11.186;2023-04-23T02:17:34;2.53;;;2.03;;
75096;SDS011;63684;47.964;11.186;2023-04-23T02:20:00;3.73;;;1.97;;
75096;SDS011;63684;47.964;11.186;2023-04-23T02:22:26;4.70;;;1.80;;
75096;SDS011;63684;47.964;11.186;2023-04-23T02:24:52;2.03;;;1.83;;
75096;SDS011;63684;47.964;11.186;2023-04-23T02:27:18;1.97;;;1.43;;
75096;SDS011;63684;47.964;11.186;2023-04-23T02:29:44;1.90;;;1.67;;
75096;SDS011;63684;47.964;11.186;2023-04-23T02:32:10;4.27;;;1.90;;
75096;SDS011;63684;47.964;11.186;2023-04-23T02:34:36;3.70;;;1.93;;
75096;SDS011;63684;47.964;11.186;2023-04-23T02:37:02;2.60;;;2.17;;
75096;SDS011;63684;47.964;11.186;2023-04-23T02:39:29;2.87;;;2.00;;
75096;SDS011;63684;47.964;11.186;2023-04-23T02:41:55;4.57;;;2.30;;
75096;SDS011;63684;47.964;11.186;2023-04-23T02:44:22;3.03;;;2.00;;
75096;SDS011;63684;47.964;11.186;2023-04-23T02:46:47;2.83;;;2.37;;
75096;SDS011;63684;47.964;11.186;2023-04-23T02:49:13;3.73;;;1.93;;
75096;SDS011;63684;47.964;11.186;2023-04-23T02:51:38;2.57;;;2.23;;
75096;SDS011;63684;47.964;11.186;2023-04-23T02:54:04;4.83;;;1.90;;
75096;SDS011;63684;47.964;11.186;2023-04-23T02:56:30;2.90;;;1.90;;
75096;SDS011;63684;47.964;11.186;2023-04-23T02:58:55;2.97;;;2.20;;
75096;SDS011;63684;47.964;11.186;2023-04-23T03:01:21;2.90;;;2.03;;
75096;SDS011;63684;47.964;11.186;2023-04-23T03:03:46;2.43;;;2.20;;
75096;SDS011;63684;47.964;11.186;2023-04-23T03:06:12;3.80;;;2.30;;
75096;SDS011;63684;47.964;11.186;2023-04-23T03:08:37;3.03;;;1.67;;
75096;SDS011;63684;47.964;11.186;2023-04-23T03:11:03;2.80;;;2.53;;
75096;SDS011;63684;47.964;11.186;2023-04-23T03:13:29;3.43;;;2.13;;
75096;SDS011;63684;47.964;11.186;2023-04-23T03:15:54;3.00;;;2.70;;
75096;SDS011;63684;47.964;11.186;2023-04-23T03:18:20;2.70;;;2.33;;
75096;SDS011;63684;47.964;11.186;2023-04-23T03:20:49;4.80;;;2.50;;
75096;SDS011;63684;47.964;11.186;2023-04-23T03:23:16;3.43;;;2.53;;
75096;SDS011;63684;47.964;11.186;2023-04-23T03:25:43;3.70;;;3.00;;
75096;SDS011;63684;47.964;11.186;2023-04-23T03:28:08;10.53;;;5.73;;
75096;SDS011;63684;47.964;11.186;2023-04-23T03:30:34;11.43;;;6.63;;
75096;SDS011;63684;47.964;11.186;2023-04-23T03:32:59;4.57;;;3.13;;
75096;SDS011;63684;47.964;11.186;2023-04-23T03:35:26;5.37;;;3.47;;
75096;SDS011;63684;47.964;11.186;2023-04-23T03:37:54;4.37;;;2.60;;
75096;SDS011;63684;47.964;11.186;2023-04-23T03:40:21;2.60;;;2.40;;
75096;SDS011;63684;47.964;11.186;2023-04-23T03:42:50;2.80;;;2.00;;
75096;SDS011;63684;47.964;11.186;2023-04-23T03:45:20;4.13;;;2.50;;
75096;SDS011;63684;47.964;11.186;2023-04-23T03:47:46;2.80;;;2.60;;
75096;SDS011;63684;47.964;11.186;2023-04-23T03:50:13;2.67;;;2.47;;
75096;SDS011;63684;47.964;11.186;2023-04-23T03:52:40;3.77;;;2.70;;
75096;SDS011;63684;47.964;11.186;2023-04-23T03:55:10;4.23;;;2.87;;
75096;SDS011;63684;47.964;11.186;2023-04-23T03:57:41;3.30;;;2.20;;
75096;SDS011;63684;47.964;11.186;2023-04-23T04:00:17;5.20;;;2.47;;
75096;SDS011;63684;47.964;11.186;2023-04-23T04:02:43;3.10;;;2.80;;
75096;SDS011;63684;47.964;11.186;2023-04-23T04:05:08;4.90;;;2.90;;
75096;SDS011;63684;47.964;11.186;2023-04-23T04:07:35;4.30;;;2.70;;
75096;SDS011;63684;47.964;11.186;2023-04-23T04:10:01;6.13;;;2.93;;
75096;SDS011;63684;47.964;11.186;2023-04-23T04:12:27;4.87;;;3.07;;
75096;SDS011;63684;47.964;11.186;2023-04-23T04:14:53;3.87;;;3.00;;
75096;SDS011;63684;47.964;11.186;2023-04-23T04:17:19;5.63;;;3.10;;
75096;SDS011;63684;47.964;11.186;2023-04-23T04:19:44;4.17;;;2.90;;
75096;SDS011;63684;47.964;11.186;2023-04-23T04:22:10;3.57;;;3.03;;
75096;SDS011;63684;47.964;11.186;2023-04-23T04:24:36;5.83;;;3.17;;
75096;SDS011;63684;47.964;11.186;2023-04-23T04:27:02;4.60;;;2.87;;
75096;SDS011;63684;47.964;11.186;2023-04-23T04:29:28;4.07;;;3.10;;
75096;SDS011;63684;47.964;11.186;2023-04-23T04:31:55;4.20;;;3.23;;
75096;SDS011;63684;47.964;11.186;2023-04-23T04:34:21;3.43;;;2.80;;
75096;SDS011;63684;47.964;11.186;2023-04-23T04:36:47;5.80;;;3.00;;
75096;SDS011;63684;47.964;11.186;2023-04-23T04:39:13;4.13;;;3.13;;
75096;SDS011;63684;47.964;11.186;2023-04-23T04:41:39;4.67;;;2.90;;
75096;SDS011;63684;47.964;11.186;2023-04-23T04:44:05;5.23;;;2.97;;
75096;SDS011;63684;47.964;11.186;2023-04-23T04:46:32;4.57;;;3.90;;
75096;SDS011;63684;47.964;11.186;2023-04-23T04:48:59;5.20;;;3.10;;
75096;SDS011;63684;47.964;11.186;2023-04-23T04:51:24;6.90;;;3.30;;
75096;SDS011;63684;47.964;11.186;2023-04-23T04:53:51;4.07;;;3.00;;
75096;SDS011;63684;47.964;11.186;2023-04-23T04:56:16;6.37;;;3.40;;
75096;SDS011;63684;47.964;11.186;2023-04-23T04:58:42;8.23;;;3.63;;
75096;SDS011;63684;47.964;11.186;2023-04-23T05:01:07;6.10;;;3.27;;
75096;SDS011;63684;47.964;11.186;2023-04-23T05:03:33;3.80;;;3.50;;
75096;SDS011;63684;47.964;11.186;2023-04-23T05:05:59;4.97;;;3.37;;
75096;SDS011;63684;47.964;11.186;2023-04-23T05:08:24;4.20;;;3.80;;
75096;SDS011;63684;47.964;11.186;2023-04-23T05:10:49;4.53;;;3.47;;
75096;SDS011;63684;47.964;11.186;2023-04-23T05:13:15;4.13;;;3.70;;
75096;SDS011;63684;47.964;11.186;2023-04-23T05:15:41;4.87;;;4.40;;
75096;SDS011;63684;47.964;11.186;2023-04-23T05:18:08;4.17;;;3.80;;
75096;SDS011;63684;47.964;11.186;2023-04-23T05:20:34;5.13;;;3.70;;
75096;SDS011;63684;47.964;11.186;2023-04-23T05:22:59;5.50;;;3.57;;
75096;SDS011;63684;47.964;11.186;2023-04-23T05:25:26;5.93;;;2.97;;
75096;SDS011;63684;47.964;11.186;2023-04-23T05:27:51;3.57;;;3.23;;
75096;SDS011;63684;47.964;11.186;2023-04-23T05:30:17;3.93;;;3.63;;
75096;SDS011;63684;47.964;11.186;2023-04-23T05:32:43;4.60;;;3.27;;
75096;SDS011;63684;47.964;11.186;2023-04-23T05:35:08;3.63;;;3.33;;
75096;SDS011;63684;47.964;11.186;2023-04-23T05:37:34;4.60;;;3.70;;
75096;SDS011;63684;47.964;11.186;2023-04-23T05:39:59;3.93;;;3.37;;
75096;SDS011;63684;47.964;11.186;2023-04-23T05:42:26;3.87;;;3.37;;
75096;SDS011;63684;47.964;11.186;2023-04-23T05:44:52;5.87;;;3.77;;
75096;SDS011;63684;47.964;11.186;2023-04-23T05:47:17;8.20;;;4.13;;
75096;SDS011;63684;47.964;11.186;2023-04-23T05:49:43;4.70;;;3.73;;
75096;SDS011;63684;47.964;11.186;2023-04-23T05:52:09;6.77;;;3.90;;
75096;SDS011;63684;47.964;11.186;2023-04-23T05:54:34;4.87;;;3.70;;
75096;SDS011;63684;47.964;11.186;2023-04-23T05:57:00;5.47;;;3.83;;
75096;SDS011;63684;47.964;11.186;2023-04-23T05:59:25;4.10;;;3.77;;
75096;SDS011;63684;47.964;11.186;2023-04-23T06:01:51;4.43;;;3.57;;
75096;SDS011;63684;47.964;11.186;2023-04-23T06:04:17;3.87;;;3.57;;
75096;SDS011;63684;47.964;11.186;2023-04-23T06:06:42;6.07;;;3.53;;
75096;SDS011;63684;47.964;11.186;2023-04-23T06:09:08;4.33;;;3.87;;
75096;SDS011;63684;47.964;11.186;2023-04-23T06:11:33;4.30;;;3.90;;
75096;SDS011;63684;47.964;11.186;2023-04-23T06:14:00;4.93;;;3.90;;
75096;SDS011;63684;47.964;11.186;2023-04-23T06:16:27;4.67;;;3.93;;
75096;SDS011;63684;47.964;11.186;2023-04-23T06:18:52;6.60;;;3.30;;
75096;SDS011;63684;47.964;11.186;2023-04-23T06:21:20;5.30;;;3.33;;
75096;SDS011;63684;47.964;11.186;2023-04-23T06:23:46;4.90;;;3.90;;
75096;SDS011;63684;47.964;11.186;2023-04-23T06:26:12;4.67;;;4.10;;
75096;SDS011;63684;47.964;11.186;2023-04-23T06:28:37;4.20;;;3.80;;
75096;SDS011;63684;47.964;11.186;2023-04-23T06:31:22;5.30;;;3.57;;
75096;SDS011;63684;47.964;11.186;2023-04-23T06:33:48;5.00;;;3.47;;
75096;SDS011;63684;47.964;11.186;2023-04-23T06:36:13;3.53;;;3.23;;
75096;SDS011;63684;47.964;11.186;2023-04-23T06:38:39;4.43;;;3.43;;
75096;SDS011;63684;47.964;11.186;2023-04-23T06:41:05;4.33;;;3.73;;
75096;SDS011;63684;47.964;11.186;2023-04-23T06:43:31;3.77;;;3.43;;
75096;SDS011;63684;47.964;11.186;2023-04-23T06:46:15;3.27;;;2.97;;
75096;SDS011;63684;47.964;11.186;2023-04-23T06:48:41;3.23;;;2.93;;
75096;SDS011;63684;47.964;11.186;2023-04-23T06:51:06;4.90;;;3.27;;
75096;SDS011;63684;47.964;11.186;2023-04-23T06:53:32;3.53;;;3.00;;
75096;SDS011;63684;47.964;11.186;2023-04-23T06:55:58;3.47;;;3.03;;
75096;SDS011;63684;47.964;11.186;2023-04-23T06:58:23;4.17;;;3.50;;
75096;SDS011;63684;47.964;11.186;2023-04-23T07:00:55;5.90;;;3.47;;
75096;SDS011;63684;47.964;11.186;2023-04-23T07:03:21;11.77;;;8.87;;
75096;SDS011;63684;47.964;11.186;2023-04-23T07:05:46;5.83;;;4.80;;
75096;SDS011;63684;47.964;11.186;2023-04-23T07:08:12;4.43;;;3.67;;
75096;SDS011;63684;47.964;11.186;2023-04-23T07:10:38;4.40;;;3.93;;
75096;SDS011;63684;47.964;11.186;2023-04-23T07:13:04;3.80;;;3.50;;
75096;SDS011;63684;47.964;11.186;2023-04-23T07:15:29;5.80;;;3.80;;
75096;SDS011;63684;47.964;11.186;2023-04-23T07:17:55;4.63;;;3.63;;
75096;SDS011;63684;47.964;11.186;2023-04-23T07:20:20;3.77;;;3.37;;
75096;SDS011;63684;47.964;11.186;2023-04-23T07:22:45;5.37;;;3.80;;
75096;SDS011;63684;47.964;11.186;2023-04-23T07:25:12;6.63;;;4.77;;
75096;SDS011;63684;47.964;11.186;2023-04-23T07:27:37;7.97;;;4.60;;
75096;SDS011;63684;47.964;11.186;2023-04-23T07:30:03;5.40;;;4.83;;
75096;SDS011;63684;47.964;11.186;2023-04-23T07:32:29;5.03;;;4.13;;
75096;SDS011;63684;47.964;11.186;2023-04-23T07:34:54;5.47;;;3.63;;
75096;SDS011;63684;47.964;11.186;2023-04-23T07:37:23;6.40;;;4.60;;
75096;SDS011;63684;47.964;11.186;2023-04-23T07:39:48;4.77;;;3.90;;
75096;SDS011;63684;47.964;11.186;2023-04-23T07:42:13;6.20;;;5.07;;
75096;SDS011;63684;47.964;11.186;2023-04-23T07:44:39;4.60;;;3.43;;
75096;SDS011;63684;47.964;11.186;2023-04-23T07:47:05;4.30;;;3.87;;
75096;SDS011;63684;47.964;11.186;2023-04-23T07:49:30;5.43;;;3.20;;
75096;SDS011;63684;47.964;11.186;2023-04-23T07:51:56;4.70;;;4.20;;
75096;SDS011;63684;47.964;11.186;2023-04-23T07:54:21;3.70;;;3.40;;
75096;SDS011;63684;47.964;11.186;2023-04-23T07:56:46;5.27;;;3.77;;
75096;SDS011;63684;47.964;11.186;2023-04-23T07:59:12;14.10;;;8.10;;
75096;SDS011;63684;47.964;11.186;2023-04-23T08:01:37;3.73;;;3.33;;
75096;SDS011;63684;47.964;11.186;2023-04-23T08:04:03;5.40;;;2.97;;
75096;SDS011;63684;47.964;11.186;2023-04-23T08:06:28;3.57;;;3.13;;
75096;SDS011;63684;47.964;11.186;2023-04-23T08:08:55;3.57;;;2.80;;
75096;SDS011;63684;47.964;11.186;2023-04-23T08:11:21;4.17;;;2.50;;
75096;SDS011;63684;47.964;11.186;2023-04-23T08:13:47;3.20;;;2.33;;
75096;SDS011;63684;47.964;11.186;2023-04-23T08:16:13;3.30;;;2.20;;
75096;SDS011;63684;47.964;11.186;2023-04-23T08:18:38;3.67;;;2.43;;
75096;SDS011;63684;47.964;11.186;2023-04-23T08:21:04;3.47;;;2.13;;
75096;SDS011;63684;47.964;11.186;2023-04-23T08:23:30;2.33;;;2.00;;
75096;SDS011;63684;47.964;11.186;2023-04-23T08:25:55;2.50;;;2.30;;
75096;SDS011;63684;47.964;11.186;2023-04-23T08:28:20;2.00;;;1.85;;
75096;SDS011;63684;47.964;11.186;2023-04-23T08:30:46;2.50;;;1.90;;
75096;SDS011;63684;47.964;11.186;2023-04-23T08:33:11;2.53;;;2.07;;
75096;SDS011;63684;47.964;11.186;2023-04-23T08:35:37;2.08;;;1.90;;
75096;SDS011;63684;47.964;11.186;2023-04-23T08:38:02;1.93;;;1.80;;
75096;SDS011;63684;47.964;11.186;2023-04-23T08:40:29;2.40;;;1.77;;
75096;SDS011;63684;47.964;11.186;2023-04-23T08:43:01;2.47;;;1.80;;
75096;SDS011;63684;47.964;11.186;2023-04-23T08:45:29;2.33;;;2.13;;
75096;SDS011;63684;47.964;11.186;2023-04-23T08:47:58;3.42;;;1.90;;
75096;SDS011;63684;47.964;11.186;2023-04-23T08:50:25;2.28;;;2.08;;
75096;SDS011;63684;47.964;11.186;2023-04-23T08:52:54;2.72;;;2.53;;
75096;SDS011;63684;47.964;11.186;2023-04-23T08:55:22;2.70;;;2.50;;
75096;SDS011;63684;47.964;11.186;2023-04-23T08:57:48;3.35;;;2.28;;
75096;SDS011;63684;47.964;11.186;2023-04-23T09:00:15;4.18;;;2.55;;
75096;SDS011;63684;47.964;11.186;2023-04-23T09:02:43;2.35;;;2.15;;
75096;SDS011;63684;47.964;11.186;2023-04-23T09:05:11;2.75;;;2.35;;
75096;SDS011;63684;47.964;11.186;2023-04-23T09:07:37;3.25;;;2.53;;
75096;SDS011;63684;47.964;11.186;2023-04-23T09:10:03;2.38;;;2.13;;
75096;SDS011;63684;47.964;11.186;2023-04-23T09:12:30;3.53;;;2.40;;
75096;SDS011;63684;47.964;11.186;2023-04-23T09:14:56;2.55;;;2.35;;
75096;SDS011;63684;47.964;11.186;2023-04-23T09:17:21;4.88;;;2.80;;
75096;SDS011;63684;47.964;11.186;2023-04-23T09:19:48;5.25;;;2.50;;
75096;SDS011;63684;47.964;11.186;2023-04-23T09:22:15;4.70;;;2.50;;
75096;SDS011;63684;47.964;11.186;2023-04-23T09:25:01;2.65;;;2.42;;
75096;SDS011;63684;47.964;11.186;2023-04-23T09:27:26;4.05;;;2.70;;
75096;SDS011;63684;47.964;11.186;2023-04-23T09:29:52;4.00;;;3.00;;
75096;SDS011;63684;47.964;11.186;2023-04-23T09:32:21;4.68;;;2.78;;
75096;SDS011;63684;47.964;11.186;2023-04-23T09:34:55;2.90;;;2.50;;
75096;SDS011;63684;47.964;11.186;2023-04-23T09:37:24;4.65;;;2.88;;
75096;SDS011;63684;47.964;11.186;2023-04-23T09:39:50;3.80;;;2.63;;
75096;SDS011;63684;47.964;11.186;2023-04-23T09:42:19;3.08;;;2.50;;
75096;SDS011;63684;47.964;11.186;2023-04-23T09:44:53;2.70;;;2.45;;
75096;SDS011;63684;47.964;11.186;2023-04-23T09:47:40;4.45;;;2.72;;
75096;SDS011;63684;47.964;11.186;2023-04-23T09:50:12;2.47;;;2.28;;
75096;SDS011;63684;47.964;11.186;2023-04-23T09:52:38;2.60;;;2.40;;
75096;SDS011;63684;47.964;11.186;2023-04-23T09:55:04;2.35;;;2.10;;
75096;SDS011;63684;47.964;11.186;2023-04-23T09:57:37;2.53;;;2.33;;
75096;SDS011;63684;47.964;11.186;2023-04-23T10:00:17;3.13;;;2.42;;
75096;SDS011;63684;47.964;11.186;2023-04-23T10:02:45;3.50;;;2.10;;
75096;SDS011;63684;47.964;11.186;2023-04-23T10:05:18;2.60;;;1.75;;
75096;SDS011;63684;47.964;11.186;2023-04-23T10:07:45;3.22;;;2.33;;
75096;SDS011;63684;47.964;11.186;2023-04-23T10:10:12;2.80;;;2.20;;
75096;SDS011;63684;47.964;11.186;2023-04-23T10:12:42;3.80;;;2.47;;
75096;SDS011;63684;47.964;11.186;2023-04-23T10:15:08;3.15;;;2.40;;
75096;SDS011;63684;47.964;11.186;2023-04-23T10:17:35;2.70;;;2.22;;
75096;SDS011;63684;47.964;11.186;2023-04-23T10:20:01;2.33;;;2.10;;
75096;SDS011;63684;47.964;11.186;2023-04-23T10:22:27;3.63;;;1.90;;
75096;SDS011;63684;47.964;11.186;2023-04-23T10:24:53;3.78;;;2.35;;
75096;SDS011;63684;47.964;11.186;2023-04-23T10:27:22;2.53;;;2.30;;
75096;SDS011;63684;47.964;11.186;2023-04-23T10:29:50;4.00;;;2.40;;
75096;SDS011;63684;47.964;11.186;2023-04-23T10:32:16;2.70;;;2.40;;
75096;SDS011;63684;47.964;11.186;2023-04-23T10:34:42;3.10;;;2.30;;
75096;SDS011;63684;47.964;11.186;2023-04-23T10:37:08;3.70;;;2.42;;
75096;SDS011;63684;47.964;11.186;2023-04-23T10:39:36;2.95;;;2.35;;
75096;SDS011;63684;47.964;11.186;2023-04-23T10:42:01;3.47;;;2.20;;
75096;SDS011;63684;47.964;11.186;2023-04-23T10:44:32;3.47;;;2.10;;
75096;SDS011;63684;47.964;11.186;2023-04-23T10:46:58;3.60;;;2.28;;
75096;SDS011;63684;47.964;11.186;2023-04-23T10:49:31;4.00;;;2.50;;
75096;SDS011;63684;47.964;11.186;2023-04-23T10:52:18;2.83;;;2.33;;
75096;SDS011;63684;47.964;11.186;2023-04-23T10:54:46;2.58;;;2.28;;
75096;SDS011;63684;47.964;11.186;2023-04-23T10:57:13;4.15;;;2.30;;
75096;SDS011;63684;47.964;11.186;2023-04-23T10:59:39;4.47;;;2.25;;
75096;SDS011;63684;47.964;11.186;2023-04-23T11:02:16;2.20;;;2.00;;
75096;SDS011;63684;47.964;11.186;2023-04-23T11:04:43;4.60;;;2.08;;
75096;SDS011;63684;47.964;11.186;2023-04-23T11:07:10;3.67;;;1.60;;
75096;SDS011;63684;47.964;11.186;2023-04-23T11:09:40;6.20;;;2.20;;
75096;SDS011;63684;47.964;11.186;2023-04-23T11:12:50;4.68;;;2.15;;
75096;SDS011;63684;47.964;11.186;2023-04-23T11:14:57;2.53;;;2.00;;
75096;SDS011;63684;47.964;11.186;2023-04-23T11:22:37;2.78;;;1.75;;
75096;SDS011;63684;47.964;11.186;2023-04-23T11:25:06;2.78;;;2.13;;
75096;SDS011;63684;47.964;11.186;2023-04-23T11:27:33;2.75;;;2.08;;
75096;SDS011;63684;47.964;11.186;2023-04-23T11:30:05;1.67;;;1.50;;
75096;SDS011;63684;47.964;11.186;2023-04-23T11:32:38;2.50;;;1.60;;
75096;SDS011;63684;47.964;11.186;2023-04-23T11:35:05;4.20;;;1.90;;
75096;SDS011;63684;47.964;11.186;2023-04-23T11:37:31;2.95;;;1.35;;
75096;SDS011;63684;47.964;11.186;2023-04-23T11:39:58;2.55;;;1.60;;
75096;SDS011;63684;47.964;11.186;2023-04-23T11:42:32;1.48;;;1.38;;
75096;SDS011;63684;47.964;11.186;2023-04-23T11:45:06;2.97;;;1.45;;
75096;SDS011;63684;47.964;11.186;2023-04-23T11:47:31;2.22;;;1.38;;
75096;SDS011;63684;47.964;11.186;2023-04-23T11:49:57;2.08;;;1.52;;
75096;SDS011;63684;47.964;11.186;2023-04-23T11:52:25;2.28;;;1.45;;
75096;SDS011;63684;47.964;11.186;2023-04-23T11:54:50;2.88;;;1.20;;
75096;SDS011;63684;47.964;11.186;2023-04-23T11:57:16;2.78;;;1.10;;
75096;SDS011;63684;47.964;11.186;2023-04-23T11:59:41;3.38;;;1.30;;
75096;SDS011;63684;47.964;11.186;2023-04-23T12:02:07;1.45;;;1.20;;
75096;SDS011;63684;47.964;11.186;2023-04-23T12:04:32;1.40;;;1.30;;
75096;SDS011;63684;47.964;11.186;2023-04-23T12:06:58;1.50;;;1.02;;
75096;SDS011;63684;47.964;11.186;2023-04-23T12:09:24;1.42;;;1.30;;
75096;SDS011;63684;47.964;11.186;2023-04-23T12:11:51;1.25;;;1.10;;
75096;SDS011;63684;47.964;11.186;2023-04-23T12:14:17;2.17;;;1.40;;
75096;SDS011;63684;47.964;11.186;2023-04-23T12:16:52;4.15;;;1.48;;
75096;SDS011;63684;47.964;11.186;2023-04-23T12:19:24;1.88;;;1.30;;
75096;SDS011;63684;47.964;11.186;2023-04-23T12:24:21;1.80;;;1.30;;
75096;SDS011;63684;47.964;11.186;2023-04-23T12:26:51;1.15;;;1.00;;
75096;SDS011;63684;47.964;11.186;2023-04-23T12:29:18;1.10;;;1.00;;
75096;SDS011;63684;47.964;11.186;2023-04-23T12:31:46;2.63;;;1.30;;
75096;SDS011;63684;47.964;11.186;2023-04-23T12:34:12;1.63;;;1.52;;
75096;SDS011;63684;47.964;11.186;2023-04-23T12:36:48;1.88;;;1.60;;
75096;SDS011;63684;47.964;11.186;2023-04-23T12:41:43;1.42;;;1.27;;
75096;SDS011;63684;47.964;11.186;2023-04-23T12:44:09;2.38;;;1.33;;
75096;SDS011;63684;47.964;11.186;2023-04-23T12:46:35;1.58;;;1.25;;
75096;SDS011;63684;47.964;11.186;2023-04-23T12:49:00;1.90;;;1.40;;
75096;SDS011;63684;47.964;11.186;2023-04-23T12:51:26;1.65;;;1.30;;
75096;SDS011;63684;47.964;11.186;2023-04-23T12:53:54;2.20;;;1.48;;
75096;SDS011;63684;47.964;11.186;2023-04-23T12:56:22;2.45;;;1.50;;
75096;SDS011;63684;47.964;11.186;2023-04-23T12:58:48;1.33;;;1.23;;
75096;SDS011;63684;47.964;11.186;2023-04-23T13:01:13;1.33;;;1.20;;
75096;SDS011;63684;47.964;11.186;2023-04-23T13:03:39;3.72;;;1.50;;
75096;SDS011;63684;47.964;11.186;2023-04-23T13:06:04;3.13;;;1.70;;
75096;SDS011;63684;47.964;11.186;2023-04-23T13:08:32;2.05;;;1.52;;
75096;SDS011;63684;47.964;11.186;2023-04-23T13:10:57;4.65;;;1.92;;
75096;SDS011;63684;47.964;11.186;2023-04-23T13:13:23;3.25;;;1.55;;
75096;SDS011;63684;47.964;11.186;2023-04-23T13:15:49;4.18;;;1.50;;
75096;SDS011;63684;47.964;11.186;2023-04-23T13:18:15;3.25;;;1.88;;
75096;SDS011;63684;47.964;11.186;2023-04-23T13:20:40;1.83;;;1.58;;
75096;SDS011;63684;47.964;11.186;2023-04-23T13:23:07;2.00;;;1.58;;
75096;SDS011;63684;47.964;11.186;2023-04-23T13:25:33;2.38;;;1.58;;
75096;SDS011;63684;47.964;11.186;2023-04-23T13:27:58;2.67;;;1.80;;
75096;SDS011;63684;47.964;11.186;2023-04-23T13:30:24;3.17;;;2.10;;
75096;SDS011;63684;47.964;11.186;2023-04-23T13:32:49;2.22;;;1.35;;
75096;SDS011;63684;47.964;11.186;2023-04-23T13:35:15;1.92;;;1.70;;
75096;SDS011;63684;47.964;11.186;2023-04-23T13:37:41;1.90;;;1.55;;
75096;SDS011;63684;47.964;11.186;2023-04-23T13:40:07;1.90;;;1.70;;
75096;SDS011;63684;47.964;11.186;2023-04-23T13:42:33;1.83;;;1.70;;
75096;SDS011;63684;47.964;11.186;2023-04-23T13:44:59;2.10;;;1.65;;
75096;SDS011;63684;47.964;11.186;2023-04-23T13:47:25;2.50;;;1.92;;
75096;SDS011;63684;47.964;11.186;2023-04-23T13:49:55;3.15;;;1.83;;
75096;SDS011;63684;47.964;11.186;2023-04-23T13:52:20;2.47;;;1.60;;
75096;SDS011;63684;47.964;11.186;2023-04-23T13:54:46;2.78;;;1.92;;
75096;SDS011;63684;47.964;11.186;2023-04-23T13:57:13;4.22;;;1.77;;
75096;SDS011;63684;47.964;11.186;2023-04-23T13:59:39;2.38;;;1.98;;
75096;SDS011;63684;47.964;11.186;2023-04-23T14:02:04;2.40;;;2.20;;
75096;SDS011;63684;47.964;11.186;2023-04-23T14:04:30;3.42;;;1.88;;
75096;SDS011;63684;47.964;11.186;2023-04-23T14:06:55;2.60;;;1.83;;
75096;SDS011;63684;47.964;11.186;2023-04-23T14:09:21;3.00;;;1.77;;
75096;SDS011;63684;47.964;11.186;2023-04-23T14:11:46;2.03;;;1.50;;
75096;SDS011;63684;47.964;11.186;2023-04-23T14:14:12;2.40;;;1.63;;
75096;SDS011;63684;47.964;11.186;2023-04-23T14:16:37;2.42;;;2.03;;
75096;SDS011;63684;47.964;11.186;2023-04-23T14:19:03;1.70;;;1.60;;
75096;SDS011;63684;47.964;11.186;2023-04-23T14:21:28;4.05;;;1.67;;
75096;SDS011;63684;47.964;11.186;2023-04-23T14:23:54;1.98;;;1.70;;
75096;SDS011;63684;47.964;11.186;2023-04-23T14:26:25;2.80;;;1.77;;
75096;SDS011;63684;47.964;11.186;2023-04-23T14:28:55;3.90;;;1.83;;
75096;SDS011;63684;47.964;11.186;2023-04-23T14:31:22;1.90;;;1.40;;
75096;SDS011;63684;47.964;11.186;2023-04-23T14:33:47;3.03;;;2.20;;
75096;SDS011;63684;47.964;11.186;2023-04-23T14:36:13;4.38;;;2.75;;
75096;SDS011;63684;47.964;11.186;2023-04-23T14:38:38;3.30;;;2.55;;
75096;SDS011;63684;47.964;11.186;2023-04-23T14:41:04;2.45;;;2.13;;